ダブリン の空港の天気 - METARとTAF

ダブリン空港 ( EIDW / DUB ) - アイルランド ダブリン
飛行場実況気象(Metar)
観測時間07/16 07:00 IST (07/16 06:00 UTC)
風向・風速西南西 2m/s
視程10km以上
天気現象
少しの雲 雲底高度 550m
全天の4割程度の雲 雲底高度 2130m
気温14℃
湿度82%
気圧1013hPa
METAREIDW 160600Z 25004KT 210V300 9999 FEW018 SCT070 14/11 Q1013 NOSIG
過去の天気等 Google飛行場航空写真 Wunderground天気予報

過去48時間のMETAR

飛行場予報(TAF)
発表時間: 7/16 06:00 IST (7/16 05:00 UTC)
予報対象時間: 16日7時 IST ~ 17日7時 IST
風向・風速西 3m/s
視程10km以上
少しの雲 雲底高度 550m
全天の8割程度の雲 雲底高度 1220m
16日7時 IST ~ 16日10時 IST に徐々に
風向・風速西 5m/s
TAF EIDW 160500Z 1606/1706 26005KT 9999 FEW018 BKN040
BECMG 1606/1609 26009KT